Terminal Aerodrome Forecast
Issued by NWS Mt. Holly, NJ

Home | Current Version | Previous Version | Text Only | Print | Product List | Glossary On
Versions: 1 2 3 4 5 6 7 8 9 10 11 12 13 14 15 16 17 18 19 20 21 22 23
000
FTUS41 KPHI 251028 AAB
TAFRDG
TAF AMD
KRDG 251028Z 2510/2606 00000KT 6SM BR FEW120
     FM251200 00000KT P6SM SCT250
     FM251700 27012G18KT P6SM FEW250
     FM260000 27004KT P6SM SKC=

USA.gov is the U.S. government's official web portal to all federal, state and local government web resources and services.